sensor_id;sensor_type;location;lat;lon;timestamp;P1;durP1;ratioP1;P2;durP2;ratioP2
55776;SDS011;54079;44.540;18.784;2022-10-31T00:01:36;11.43;;;7.75;;
55776;SDS011;54079;44.540;18.784;2022-10-31T00:04:04;11.40;;;7.20;;
55776;SDS011;54079;44.540;18.784;2022-10-31T00:06:30;14.18;;;8.25;;
55776;SDS011;54079;44.540;18.784;2022-10-31T00:09:01;13.63;;;8.07;;
55776;SDS011;54079;44.540;18.784;2022-10-31T00:11:28;17.10;;;8.07;;
55776;SDS011;54079;44.540;18.784;2022-10-31T00:13:54;12.48;;;8.15;;
55776;SDS011;54079;44.540;18.784;2022-10-31T00:16:23;15.30;;;9.10;;
55776;SDS011;54079;44.540;18.784;2022-10-31T00:18:50;14.98;;;8.35;;
55776;SDS011;54079;44.540;18.784;2022-10-31T00:21:18;11.23;;;7.95;;
55776;SDS011;54079;44.540;18.784;2022-10-31T00:23:45;11.95;;;8.13;;
55776;SDS011;54079;44.540;18.784;2022-10-31T00:26:12;15.85;;;8.95;;
55776;SDS011;54079;44.540;18.784;2022-10-31T00:28:38;15.07;;;8.20;;
55776;SDS011;54079;44.540;18.784;2022-10-31T00:31:04;15.55;;;8.40;;
55776;SDS011;54079;44.540;18.784;2022-10-31T00:33:35;16.63;;;8.55;;
55776;SDS011;54079;44.540;18.784;2022-10-31T00:36:03;16.70;;;8.05;;
55776;SDS011;54079;44.540;18.784;2022-10-31T00:38:30;13.23;;;9.35;;
55776;SDS011;54079;44.540;18.784;2022-10-31T00:40:56;12.25;;;8.75;;
55776;SDS011;54079;44.540;18.784;2022-10-31T00:43:22;16.00;;;9.25;;
55776;SDS011;54079;44.540;18.784;2022-10-31T00:45:48;16.15;;;10.23;;
55776;SDS011;54079;44.540;18.784;2022-10-31T00:48:14;12.73;;;9.10;;
55776;SDS011;54079;44.540;18.784;2022-10-31T00:50:40;14.95;;;10.52;;
55776;SDS011;54079;44.540;18.784;2022-10-31T00:53:06;18.63;;;9.95;;
55776;SDS011;54079;44.540;18.784;2022-10-31T00:55:32;14.63;;;9.77;;
55776;SDS011;54079;44.540;18.784;2022-10-31T00:57:58;14.63;;;9.60;;
55776;SDS011;54079;44.540;18.784;2022-10-31T01:00:24;15.48;;;9.73;;
55776;SDS011;54079;44.540;18.784;2022-10-31T01:02:50;14.80;;;9.73;;
55776;SDS011;54079;44.540;18.784;2022-10-31T01:05:17;12.82;;;9.35;;
55776;SDS011;54079;44.540;18.784;2022-10-31T01:07:43;17.35;;;8.70;;
55776;SDS011;54079;44.540;18.784;2022-10-31T01:10:09;16.60;;;10.20;;
55776;SDS011;54079;44.540;18.784;2022-10-31T01:12:39;14.48;;;10.02;;
55776;SDS011;54079;44.540;18.784;2022-10-31T01:15:07;17.25;;;10.02;;
55776;SDS011;54079;44.540;18.784;2022-10-31T01:17:33;17.65;;;9.70;;
55776;SDS011;54079;44.540;18.784;2022-10-31T01:20:00;14.93;;;9.80;;
55776;SDS011;54079;44.540;18.784;2022-10-31T01:22:26;16.08;;;10.57;;
55776;SDS011;54079;44.540;18.784;2022-10-31T01:24:51;16.27;;;9.30;;
55776;SDS011;54079;44.540;18.784;2022-10-31T01:27:17;16.70;;;9.35;;
55776;SDS011;54079;44.540;18.784;2022-10-31T01:29:43;15.82;;;9.88;;
55776;SDS011;54079;44.540;18.784;2022-10-31T01:32:09;15.35;;;10.35;;
55776;SDS011;54079;44.540;18.784;2022-10-31T01:34:35;19.95;;;10.38;;
55776;SDS011;54079;44.540;18.784;2022-10-31T01:37:01;13.43;;;9.45;;
55776;SDS011;54079;44.540;18.784;2022-10-31T01:39:27;16.27;;;9.90;;
55776;SDS011;54079;44.540;18.784;2022-10-31T01:41:53;16.90;;;10.55;;
55776;SDS011;54079;44.540;18.784;2022-10-31T01:49:14;15.95;;;9.50;;
55776;SDS011;54079;44.540;18.784;2022-10-31T01:51:54;18.20;;;10.45;;
55776;SDS011;54079;44.540;18.784;2022-10-31T01:54:43;15.02;;;9.68;;
55776;SDS011;54079;44.540;18.784;2022-10-31T01:57:15;14.35;;;8.93;;
55776;SDS011;54079;44.540;18.784;2022-10-31T01:59:46;14.82;;;9.50;;
55776;SDS011;54079;44.540;18.784;2022-10-31T02:02:15;18.05;;;9.52;;
55776;SDS011;54079;44.540;18.784;2022-10-31T02:04:43;16.08;;;10.68;;
55776;SDS011;54079;44.540;18.784;2022-10-31T02:07:17;17.60;;;9.52;;
55776;SDS011;54079;44.540;18.784;2022-10-31T02:10:04;17.75;;;9.32;;
55776;SDS011;54079;44.540;18.784;2022-10-31T02:12:31;16.35;;;10.10;;
55776;SDS011;54079;44.540;18.784;2022-10-31T02:14:58;14.57;;;10.57;;
55776;SDS011;54079;44.540;18.784;2022-10-31T02:17:25;18.05;;;10.32;;
55776;SDS011;54079;44.540;18.784;2022-10-31T02:19:52;16.13;;;10.15;;
55776;SDS011;54079;44.540;18.784;2022-10-31T02:22:45;15.95;;;10.25;;
55776;SDS011;54079;44.540;18.784;2022-10-31T02:28:29;18.30;;;10.13;;
55776;SDS011;54079;44.540;18.784;2022-10-31T02:33:43;16.60;;;10.43;;
55776;SDS011;54079;44.540;18.784;2022-10-31T02:36:26;16.13;;;9.88;;
55776;SDS011;54079;44.540;18.784;2022-10-31T02:39:06;17.00;;;9.90;;
55776;SDS011;54079;44.540;18.784;2022-10-31T02:47:15;16.58;;;9.65;;
55776;SDS011;54079;44.540;18.784;2022-10-31T02:52:32;16.20;;;10.13;;
55776;SDS011;54079;44.540;18.784;2022-10-31T02:55:08;16.27;;;10.32;;
55776;SDS011;54079;44.540;18.784;2022-10-31T02:58:11;16.27;;;10.68;;
55776;SDS011;54079;44.540;18.784;2022-10-31T03:01:22;14.23;;;9.82;;
55776;SDS011;54079;44.540;18.784;2022-10-31T03:06:30;15.35;;;10.63;;
55776;SDS011;54079;44.540;18.784;2022-10-31T03:14:32;17.58;;;10.73;;
55776;SDS011;54079;44.540;18.784;2022-10-31T03:17:06;16.92;;;10.35;;
55776;SDS011;54079;44.540;18.784;2022-10-31T03:19:40;14.63;;;9.85;;
55776;SDS011;54079;44.540;18.784;2022-10-31T03:22:17;15.07;;;9.50;;
55776;SDS011;54079;44.540;18.784;2022-10-31T03:24:46;16.63;;;11.20;;
55776;SDS011;54079;44.540;18.784;2022-10-31T03:27:17;16.77;;;9.35;;
55776;SDS011;54079;44.540;18.784;2022-10-31T03:29:47;13.40;;;9.00;;
55776;SDS011;54079;44.540;18.784;2022-10-31T03:32:19;15.38;;;8.45;;
55776;SDS011;54079;44.540;18.784;2022-10-31T03:34:49;13.90;;;9.68;;
55776;SDS011;54079;44.540;18.784;2022-10-31T03:37:18;13.13;;;9.18;;
55776;SDS011;54079;44.540;18.784;2022-10-31T03:39:45;17.27;;;9.65;;
55776;SDS011;54079;44.540;18.784;2022-10-31T03:42:14;16.55;;;10.35;;
55776;SDS011;54079;44.540;18.784;2022-10-31T03:44:48;14.73;;;9.90;;
55776;SDS011;54079;44.540;18.784;2022-10-31T03:47:20;14.25;;;9.38;;
55776;SDS011;54079;44.540;18.784;2022-10-31T03:49:46;16.23;;;8.90;;
55776;SDS011;54079;44.540;18.784;2022-10-31T03:54:52;14.95;;;9.30;;
55776;SDS011;54079;44.540;18.784;2022-10-31T03:57:24;13.52;;;8.77;;
55776;SDS011;54079;44.540;18.784;2022-10-31T04:00:05;15.48;;;9.57;;
55776;SDS011;54079;44.540;18.784;2022-10-31T04:02:32;18.50;;;9.60;;
55776;SDS011;54079;44.540;18.784;2022-10-31T04:05:00;15.43;;;9.50;;
55776;SDS011;54079;44.540;18.784;2022-10-31T04:07:28;11.63;;;8.45;;
55776;SDS011;54079;44.540;18.784;2022-10-31T04:09:58;17.77;;;9.10;;
55776;SDS011;54079;44.540;18.784;2022-10-31T04:12:27;14.77;;;9.40;;
55776;SDS011;54079;44.540;18.784;2022-10-31T04:14:56;15.40;;;9.88;;
55776;SDS011;54079;44.540;18.784;2022-10-31T04:17:23;14.45;;;9.05;;
55776;SDS011;54079;44.540;18.784;2022-10-31T04:19:53;14.13;;;8.88;;
55776;SDS011;54079;44.540;18.784;2022-10-31T04:22:18;14.75;;;9.48;;
55776;SDS011;54079;44.540;18.784;2022-10-31T04:24:44;13.95;;;9.88;;
55776;SDS011;54079;44.540;18.784;2022-10-31T04:27:10;15.60;;;10.07;;
55776;SDS011;54079;44.540;18.784;2022-10-31T04:29:36;13.25;;;8.25;;
55776;SDS011;54079;44.540;18.784;2022-10-31T04:32:02;12.85;;;8.05;;
55776;SDS011;54079;44.540;18.784;2022-10-31T04:34:28;16.15;;;9.18;;
55776;SDS011;54079;44.540;18.784;2022-10-31T04:36:54;14.02;;;7.97;;
55776;SDS011;54079;44.540;18.784;2022-10-31T04:39:20;12.88;;;8.52;;
55776;SDS011;54079;44.540;18.784;2022-10-31T04:41:46;14.80;;;8.18;;
55776;SDS011;54079;44.540;18.784;2022-10-31T04:44:11;14.52;;;8.55;;
55776;SDS011;54079;44.540;18.784;2022-10-31T04:46:37;13.07;;;8.23;;
55776;SDS011;54079;44.540;18.784;2022-10-31T04:49:03;17.13;;;9.52;;
55776;SDS011;54079;44.540;18.784;2022-10-31T04:51:29;17.65;;;8.85;;
55776;SDS011;54079;44.540;18.784;2022-10-31T04:53:55;15.13;;;9.18;;
55776;SDS011;54079;44.540;18.784;2022-10-31T04:56:21;14.25;;;10.13;;
55776;SDS011;54079;44.540;18.784;2022-10-31T04:58:47;12.98;;;8.55;;
55776;SDS011;54079;44.540;18.784;2022-10-31T05:01:13;14.48;;;8.68;;
55776;SDS011;54079;44.540;18.784;2022-10-31T05:03:39;13.23;;;8.75;;
55776;SDS011;54079;44.540;18.784;2022-10-31T05:06:05;14.32;;;9.07;;
55776;SDS011;54079;44.540;18.784;2022-10-31T05:08:31;14.90;;;8.10;;
55776;SDS011;54079;44.540;18.784;2022-10-31T05:11:01;13.77;;;8.57;;
55776;SDS011;54079;44.540;18.784;2022-10-31T05:13:27;15.73;;;8.63;;
55776;SDS011;54079;44.540;18.784;2022-10-31T05:15:53;14.52;;;9.10;;
55776;SDS011;54079;44.540;18.784;2022-10-31T05:18:19;16.67;;;9.65;;
55776;SDS011;54079;44.540;18.784;2022-10-31T05:20:45;13.85;;;9.07;;
55776;SDS011;54079;44.540;18.784;2022-10-31T05:23:11;14.32;;;9.45;;
55776;SDS011;54079;44.540;18.784;2022-10-31T05:25:39;13.80;;;8.80;;
55776;SDS011;54079;44.540;18.784;2022-10-31T05:28:05;14.20;;;9.10;;
55776;SDS011;54079;44.540;18.784;2022-10-31T05:30:32;16.63;;;9.02;;
55776;SDS011;54079;44.540;18.784;2022-10-31T05:32:58;14.25;;;8.45;;
55776;SDS011;54079;44.540;18.784;2022-10-31T05:35:26;14.55;;;9.15;;
55776;SDS011;54079;44.540;18.784;2022-10-31T05:37:54;12.65;;;8.98;;
55776;SDS011;54079;44.540;18.784;2022-10-31T05:40:20;15.13;;;9.40;;
55776;SDS011;54079;44.540;18.784;2022-10-31T05:42:46;15.18;;;10.15;;
55776;SDS011;54079;44.540;18.784;2022-10-31T05:45:16;14.50;;;7.93;;
55776;SDS011;54079;44.540;18.784;2022-10-31T05:47:49;14.02;;;8.45;;
55776;SDS011;54079;44.540;18.784;2022-10-31T05:50:16;14.00;;;9.52;;
55776;SDS011;54079;44.540;18.784;2022-10-31T05:52:42;15.43;;;9.43;;
55776;SDS011;54079;44.540;18.784;2022-10-31T05:55:08;11.70;;;8.07;;
55776;SDS011;54079;44.540;18.784;2022-10-31T05:57:34;13.50;;;8.77;;
55776;SDS011;54079;44.540;18.784;2022-10-31T06:00:00;14.80;;;8.85;;
55776;SDS011;54079;44.540;18.784;2022-10-31T06:02:26;12.48;;;9.00;;
55776;SDS011;54079;44.540;18.784;2022-10-31T06:04:52;14.43;;;9.48;;
55776;SDS011;54079;44.540;18.784;2022-10-31T06:07:18;14.55;;;9.70;;
55776;SDS011;54079;44.540;18.784;2022-10-31T06:09:44;12.73;;;8.95;;
55776;SDS011;54079;44.540;18.784;2022-10-31T06:12:10;12.82;;;9.00;;
55776;SDS011;54079;44.540;18.784;2022-10-31T06:14:35;14.02;;;8.57;;
55776;SDS011;54079;44.540;18.784;2022-10-31T06:17:01;11.73;;;8.55;;
55776;SDS011;54079;44.540;18.784;2022-10-31T06:19:27;16.17;;;8.93;;
55776;SDS011;54079;44.540;18.784;2022-10-31T06:21:53;15.95;;;8.40;;
55776;SDS011;54079;44.540;18.784;2022-10-31T06:24:19;13.15;;;8.35;;
55776;SDS011;54079;44.540;18.784;2022-10-31T06:26:45;14.00;;;8.80;;
55776;SDS011;54079;44.540;18.784;2022-10-31T06:29:11;14.00;;;8.80;;
55776;SDS011;54079;44.540;18.784;2022-10-31T06:31:37;20.25;;;9.32;;
55776;SDS011;54079;44.540;18.784;2022-10-31T06:34:02;12.10;;;8.02;;
55776;SDS011;54079;44.540;18.784;2022-10-31T06:36:28;13.93;;;8.57;;
55776;SDS011;54079;44.540;18.784;2022-10-31T06:38:54;12.05;;;8.73;;
55776;SDS011;54079;44.540;18.784;2022-10-31T06:41:20;14.77;;;9.60;;
55776;SDS011;54079;44.540;18.784;2022-10-31T06:43:48;14.95;;;8.82;;
55776;SDS011;54079;44.540;18.784;2022-10-31T06:46:19;14.38;;;8.23;;
55776;SDS011;54079;44.540;18.784;2022-10-31T06:48:45;12.95;;;9.20;;
55776;SDS011;54079;44.540;18.784;2022-10-31T06:51:11;13.27;;;8.73;;
55776;SDS011;54079;44.540;18.784;2022-10-31T06:53:37;13.70;;;8.10;;
55776;SDS011;54079;44.540;18.784;2022-10-31T06:56:03;12.48;;;8.43;;
55776;SDS011;54079;44.540;18.784;2022-10-31T06:58:29;10.55;;;7.57;;
55776;SDS011;54079;44.540;18.784;2022-10-31T07:00:58;15.60;;;9.50;;
55776;SDS011;54079;44.540;18.784;2022-10-31T07:03:25;13.75;;;8.15;;
55776;SDS011;54079;44.540;18.784;2022-10-31T07:05:51;12.40;;;7.90;;
55776;SDS011;54079;44.540;18.784;2022-10-31T07:08:17;14.07;;;9.10;;
55776;SDS011;54079;44.540;18.784;2022-10-31T07:10:43;11.10;;;7.15;;
55776;SDS011;54079;44.540;18.784;2022-10-31T07:13:15;13.68;;;8.63;;
55776;SDS011;54079;44.540;18.784;2022-10-31T07:15:41;11.68;;;8.30;;
55776;SDS011;54079;44.540;18.784;2022-10-31T07:18:09;11.77;;;8.10;;
55776;SDS011;54079;44.540;18.784;2022-10-31T07:20:37;10.98;;;7.57;;
55776;SDS011;54079;44.540;18.784;2022-10-31T07:23:03;12.48;;;9.43;;
55776;SDS011;54079;44.540;18.784;2022-10-31T07:25:29;10.02;;;7.95;;
55776;SDS011;54079;44.540;18.784;2022-10-31T07:27:55;10.93;;;7.90;;
55776;SDS011;54079;44.540;18.784;2022-10-31T07:30:20;11.82;;;8.07;;
55776;SDS011;54079;44.540;18.784;2022-10-31T07:32:47;14.50;;;10.50;;
55776;SDS011;54079;44.540;18.784;2022-10-31T07:35:22;12.27;;;8.18;;
55776;SDS011;54079;44.540;18.784;2022-10-31T07:37:49;13.02;;;8.68;;
55776;SDS011;54079;44.540;18.784;2022-10-31T07:40:15;16.63;;;9.10;;
55776;SDS011;54079;44.540;18.784;2022-10-31T07:42:43;11.30;;;8.10;;
55776;SDS011;54079;44.540;18.784;2022-10-31T07:45:12;12.05;;;8.35;;
55776;SDS011;54079;44.540;18.784;2022-10-31T07:50:07;10.95;;;8.32;;
55776;SDS011;54079;44.540;18.784;2022-10-31T07:52:34;9.77;;;7.95;;
55776;SDS011;54079;44.540;18.784;2022-10-31T07:55:00;10.00;;;7.60;;
55776;SDS011;54079;44.540;18.784;2022-10-31T07:57:26;12.45;;;8.10;;
55776;SDS011;54079;44.540;18.784;2022-10-31T07:59:52;11.95;;;8.32;;
55776;SDS011;54079;44.540;18.784;2022-10-31T08:02:18;13.60;;;10.18;;
55776;SDS011;54079;44.540;18.784;2022-10-31T08:04:44;12.55;;;9.10;;
55776;SDS011;54079;44.540;18.784;2022-10-31T08:07:10;10.35;;;8.77;;
55776;SDS011;54079;44.540;18.784;2022-10-31T08:09:36;11.80;;;9.40;;
55776;SDS011;54079;44.540;18.784;2022-10-31T08:12:02;10.70;;;9.32;;
55776;SDS011;54079;44.540;18.784;2022-10-31T08:14:28;14.52;;;9.95;;
55776;SDS011;54079;44.540;18.784;2022-10-31T08:16:54;12.90;;;9.48;;
55776;SDS011;54079;44.540;18.784;2022-10-31T08:19:20;14.20;;;8.75;;
55776;SDS011;54079;44.540;18.784;2022-10-31T08:21:45;11.20;;;9.18;;
55776;SDS011;54079;44.540;18.784;2022-10-31T08:24:11;10.90;;;9.80;;
55776;SDS011;54079;44.540;18.784;2022-10-31T08:26:37;12.35;;;9.63;;
55776;SDS011;54079;44.540;18.784;2022-10-31T08:29:03;10.95;;;9.85;;
55776;SDS011;54079;44.540;18.784;2022-10-31T08:31:29;12.50;;;9.48;;
55776;SDS011;54079;44.540;18.784;2022-10-31T08:33:55;12.32;;;10.77;;
55776;SDS011;54079;44.540;18.784;2022-10-31T08:36:21;11.23;;;9.55;;
55776;SDS011;54079;44.540;18.784;2022-10-31T08:38:47;12.95;;;9.73;;
55776;SDS011;54079;44.540;18.784;2022-10-31T08:41:13;11.88;;;10.68;;
55776;SDS011;54079;44.540;18.784;2022-10-31T08:43:40;13.60;;;12.20;;
55776;SDS011;54079;44.540;18.784;2022-10-31T08:46:05;13.77;;;11.05;;
55776;SDS011;54079;44.540;18.784;2022-10-31T08:48:32;12.18;;;10.88;;
55776;SDS011;54079;44.540;18.784;2022-10-31T08:50:58;14.25;;;11.38;;
55776;SDS011;54079;44.540;18.784;2022-10-31T08:53:24;13.80;;;11.85;;
55776;SDS011;54079;44.540;18.784;2022-10-31T08:55:53;13.70;;;11.20;;
55776;SDS011;54079;44.540;18.784;2022-10-31T08:58:20;18.00;;;13.55;;
55776;SDS011;54079;44.540;18.784;2022-10-31T09:00:47;14.27;;;10.98;;
55776;SDS011;54079;44.540;18.784;2022-10-31T09:05:46;15.18;;;13.65;;
55776;SDS011;54079;44.540;18.784;2022-10-31T09:08:12;13.25;;;10.30;;
55776;SDS011;54079;44.540;18.784;2022-10-31T09:10:39;13.13;;;10.15;;
55776;SDS011;54079;44.540;18.784;2022-10-31T09:13:09;13.25;;;10.13;;
55776;SDS011;54079;44.540;18.784;2022-10-31T09:15:40;15.35;;;10.43;;
55776;SDS011;54079;44.540;18.784;2022-10-31T09:18:07;14.35;;;9.80;;
55776;SDS011;54079;44.540;18.784;2022-10-31T09:20:34;12.32;;;10.18;;
55776;SDS011;54079;44.540;18.784;2022-10-31T09:23:03;15.70;;;11.85;;
55776;SDS011;54079;44.540;18.784;2022-10-31T09:25:31;15.27;;;11.27;;
55776;SDS011;54079;44.540;18.784;2022-10-31T09:27:59;15.88;;;11.50;;
55776;SDS011;54079;44.540;18.784;2022-10-31T09:30:29;17.95;;;11.65;;
55776;SDS011;54079;44.540;18.784;2022-10-31T09:32:58;17.77;;;13.77;;
55776;SDS011;54079;44.540;18.784;2022-10-31T09:35:25;13.95;;;12.45;;
55776;SDS011;54079;44.540;18.784;2022-10-31T09:37:59;19.55;;;13.25;;
55776;SDS011;54079;44.540;18.784;2022-10-31T09:40:36;16.90;;;12.10;;
55776;SDS011;54079;44.540;18.784;2022-10-31T09:43:14;15.18;;;12.38;;
55776;SDS011;54079;44.540;18.784;2022-10-31T09:48:48;15.43;;;11.20;;
55776;SDS011;54079;44.540;18.784;2022-10-31T09:51:24;14.93;;;10.90;;
55776;SDS011;54079;44.540;18.784;2022-10-31T09:57:06;16.00;;;12.10;;
55776;SDS011;54079;44.540;18.784;2022-10-31T09:59:39;15.73;;;10.98;;
55776;SDS011;54079;44.540;18.784;2022-10-31T10:02:15;16.92;;;11.82;;
55776;SDS011;54079;44.540;18.784;2022-10-31T10:07:16;18.25;;;11.65;;
55776;SDS011;54079;44.540;18.784;2022-10-31T10:09:53;15.30;;;10.75;;
55776;SDS011;54079;44.540;18.784;2022-10-31T10:14:59;17.92;;;11.27;;
55776;SDS011;54079;44.540;18.784;2022-10-31T10:20:21;13.05;;;10.07;;
55776;SDS011;54079;44.540;18.784;2022-10-31T10:23:12;14.48;;;10.52;;
55776;SDS011;54079;44.540;18.784;2022-10-31T10:25:40;17.90;;;10.98;;
55776;SDS011;54079;44.540;18.784;2022-10-31T10:30:56;16.73;;;11.30;;
55776;SDS011;54079;44.540;18.784;2022-10-31T10:33:31;17.58;;;11.90;;
55776;SDS011;54079;44.540;18.784;2022-10-31T10:38:51;15.07;;;10.18;;
55776;SDS011;54079;44.540;18.784;2022-10-31T10:41:24;17.45;;;13.00;;
55776;SDS011;54079;44.540;18.784;2022-10-31T10:43:52;23.70;;;14.30;;
55776;SDS011;54079;44.540;18.784;2022-10-31T10:46:34;20.80;;;14.07;;
55776;SDS011;54079;44.540;18.784;2022-10-31T11:00:23;20.52;;;13.93;;
55776;SDS011;54079;44.540;18.784;2022-10-31T11:02:51;25.77;;;17.60;;
55776;SDS011;54079;44.540;18.784;2022-10-31T11:07:51;23.58;;;14.23;;
55776;SDS011;54079;44.540;18.784;2022-10-31T11:10:17;25.35;;;15.52;;
55776;SDS011;54079;44.540;18.784;2022-10-31T11:12:44;21.00;;;13.68;;
55776;SDS011;54079;44.540;18.784;2022-10-31T11:15:24;21.27;;;14.38;;
55776;SDS011;54079;44.540;18.784;2022-10-31T11:17:51;19.38;;;13.30;;
55776;SDS011;54079;44.540;18.784;2022-10-31T11:23:10;19.23;;;13.07;;
55776;SDS011;54079;44.540;18.784;2022-10-31T11:25:48;20.38;;;12.65;;
55776;SDS011;54079;44.540;18.784;2022-10-31T11:28:31;18.63;;;11.32;;
55776;SDS011;54079;44.540;18.784;2022-10-31T11:31:00;19.13;;;12.23;;
55776;SDS011;54079;44.540;18.784;2022-10-31T11:33:35;20.75;;;12.30;;
55776;SDS011;54079;44.540;18.784;2022-10-31T11:36:03;23.00;;;15.97;;
55776;SDS011;54079;44.540;18.784;2022-10-31T11:38:41;21.23;;;14.48;;
55776;SDS011;54079;44.540;18.784;2022-10-31T11:43:50;20.58;;;14.82;;
55776;SDS011;54079;44.540;18.784;2022-10-31T11:46:21;20.90;;;16.02;;
55776;SDS011;54079;44.540;18.784;2022-10-31T11:52:14;22.52;;;16.10;;
55776;SDS011;54079;44.540;18.784;2022-10-31T12:02:50;22.35;;;13.88;;
55776;SDS011;54079;44.540;18.784;2022-10-31T12:07:45;23.85;;;14.32;;
55776;SDS011;54079;44.540;18.784;2022-10-31T12:10:12;20.73;;;14.13;;
55776;SDS011;54079;44.540;18.784;2022-10-31T12:23:30;19.40;;;11.85;;
55776;SDS011;54079;44.540;18.784;2022-10-31T12:29:25;18.73;;;12.65;;
55776;SDS011;54079;44.540;18.784;2022-10-31T12:32:20;17.50;;;12.88;;
55776;SDS011;54079;44.540;18.784;2022-10-31T12:34:56;24.10;;;12.40;;
55776;SDS011;54079;44.540;18.784;2022-10-31T12:45:43;18.83;;;12.35;;
55776;SDS011;54079;44.540;18.784;2022-10-31T12:54:56;19.02;;;11.70;;
55776;SDS011;54079;44.540;18.784;2022-10-31T12:57:33;17.08;;;13.05;;
55776;SDS011;54079;44.540;18.784;2022-10-31T13:00:18;19.30;;;13.15;;
55776;SDS011;54079;44.540;18.784;2022-10-31T13:02:49;16.48;;;11.50;;
55776;SDS011;54079;44.540;18.784;2022-10-31T13:05:33;20.52;;;13.48;;
55776;SDS011;54079;44.540;18.784;2022-10-31T13:08:12;22.35;;;12.75;;
55776;SDS011;54079;44.540;18.784;2022-10-31T13:11:10;23.20;;;15.35;;
55776;SDS011;54079;44.540;18.784;2022-10-31T13:13:48;19.40;;;11.25;;
55776;SDS011;54079;44.540;18.784;2022-10-31T13:16:37;18.85;;;12.85;;
55776;SDS011;54079;44.540;18.784;2022-10-31T13:19:18;20.08;;;10.88;;
55776;SDS011;54079;44.540;18.784;2022-10-31T13:22:02;20.27;;;13.52;;
55776;SDS011;54079;44.540;18.784;2022-10-31T13:24:41;19.33;;;13.30;;
55776;SDS011;54079;44.540;18.784;2022-10-31T13:27:28;23.55;;;11.25;;
55776;SDS011;54079;44.540;18.784;2022-10-31T13:33:46;15.95;;;9.63;;
55776;SDS011;54079;44.540;18.784;2022-10-31T13:35:51;19.20;;;9.82;;
55776;SDS011;54079;44.540;18.784;2022-10-31T13:38:41;15.82;;;8.75;;
55776;SDS011;54079;44.540;18.784;2022-10-31T13:41:26;17.38;;;9.63;;
55776;SDS011;54079;44.540;18.784;2022-10-31T13:44:04;20.48;;;12.43;;
55776;SDS011;54079;44.540;18.784;2022-10-31T13:46:46;17.58;;;11.25;;
55776;SDS011;54079;44.540;18.784;2022-10-31T13:54:35;21.55;;;12.52;;
55776;SDS011;54079;44.540;18.784;2022-10-31T13:57:14;17.48;;;10.85;;
55776;SDS011;54079;44.540;18.784;2022-10-31T13:59:58;20.08;;;11.30;;
55776;SDS011;54079;44.540;18.784;2022-10-31T14:02:35;18.80;;;12.68;;
55776;SDS011;54079;44.540;18.784;2022-10-31T14:07:43;25.20;;;13.67;;
55776;SDS011;54079;44.540;18.784;2022-10-31T14:12:45;23.63;;;14.75;;
55776;SDS011;54079;44.540;18.784;2022-10-31T14:17:55;34.53;;;22.83;;
55776;SDS011;54079;44.540;18.784;2022-10-31T14:24:02;34.35;;;22.13;;
55776;SDS011;54079;44.540;18.784;2022-10-31T14:28:56;39.45;;;23.92;;
55776;SDS011;54079;44.540;18.784;2022-10-31T14:31:53;37.75;;;23.08;;
55776;SDS011;54079;44.540;18.784;2022-10-31T14:34:27;38.80;;;23.13;;
55776;SDS011;54079;44.540;18.784;2022-10-31T14:51:18;45.92;;;29.60;;
55776;SDS011;54079;44.540;18.784;2022-10-31T14:53:51;40.08;;;27.15;;
55776;SDS011;54079;44.540;18.784;2022-10-31T14:56:29;44.25;;;28.27;;
55776;SDS011;54079;44.540;18.784;2022-10-31T14:59:09;46.33;;;29.77;;
55776;SDS011;54079;44.540;18.784;2022-10-31T15:01:53;49.78;;;30.42;;
55776;SDS011;54079;44.540;18.784;2022-10-31T15:04:34;42.22;;;28.52;;
55776;SDS011;54079;44.540;18.784;2022-10-31T15:09:39;40.83;;;23.60;;
55776;SDS011;54079;44.540;18.784;2022-10-31T15:12:27;36.70;;;23.50;;
55776;SDS011;54079;44.540;18.784;2022-10-31T15:14:55;36.95;;;24.05;;
55776;SDS011;54079;44.540;18.784;2022-10-31T15:17:22;36.35;;;24.25;;
55776;SDS011;54079;44.540;18.784;2022-10-31T15:19:49;42.15;;;23.67;;
55776;SDS011;54079;44.540;18.784;2022-10-31T15:22:17;33.42;;;21.40;;
55776;SDS011;54079;44.540;18.784;2022-10-31T15:24:45;31.85;;;20.52;;
55776;SDS011;54079;44.540;18.784;2022-10-31T15:27:15;26.80;;;18.67;;
55776;SDS011;54079;44.540;18.784;2022-10-31T15:29:52;31.50;;;18.45;;
55776;SDS011;54079;44.540;18.784;2022-10-31T15:32:22;24.73;;;17.27;;
55776;SDS011;54079;44.540;18.784;2022-10-31T15:37:21;19.63;;;14.32;;
55776;SDS011;54079;44.540;18.784;2022-10-31T15:39:49;21.80;;;13.48;;
55776;SDS011;54079;44.540;18.784;2022-10-31T15:42:23;21.25;;;14.45;;
55776;SDS011;54079;44.540;18.784;2022-10-31T15:47:38;22.35;;;15.18;;
55776;SDS011;54079;44.540;18.784;2022-10-31T15:52:47;20.40;;;12.45;;
55776;SDS011;54079;44.540;18.784;2022-10-31T15:55:16;23.98;;;13.90;;
55776;SDS011;54079;44.540;18.784;2022-10-31T15:57:47;23.27;;;14.63;;
55776;SDS011;54079;44.540;18.784;2022-10-31T16:00:22;19.55;;;12.88;;
55776;SDS011;54079;44.540;18.784;2022-10-31T16:02:49;18.35;;;13.15;;
55776;SDS011;54079;44.540;18.784;2022-10-31T16:05:25;23.38;;;13.63;;
55776;SDS011;54079;44.540;18.784;2022-10-31T16:08:02;24.52;;;13.93;;
55776;SDS011;54079;44.540;18.784;2022-10-31T16:10:32;24.13;;;14.80;;
55776;SDS011;54079;44.540;18.784;2022-10-31T16:12:59;27.92;;;16.38;;
55776;SDS011;54079;44.540;18.784;2022-10-31T16:15:27;31.00;;;17.48;;
55776;SDS011;54079;44.540;18.784;2022-10-31T16:17:54;35.75;;;18.40;;
55776;SDS011;54079;44.540;18.784;2022-10-31T16:20:21;31.73;;;19.13;;
55776;SDS011;54079;44.540;18.784;2022-10-31T16:22:51;28.45;;;16.88;;
55776;SDS011;54079;44.540;18.784;2022-10-31T16:25:28;27.05;;;16.40;;
55776;SDS011;54079;44.540;18.784;2022-10-31T16:28:12;25.98;;;16.17;;
55776;SDS011;54079;44.540;18.784;2022-10-31T16:30:42;24.70;;;15.93;;
55776;SDS011;54079;44.540;18.784;2022-10-31T16:33:27;27.83;;;17.58;;
55776;SDS011;54079;44.540;18.784;2022-10-31T16:35:59;25.77;;;15.93;;
55776;SDS011;54079;44.540;18.784;2022-10-31T16:38:28;26.13;;;16.50;;
55776;SDS011;54079;44.540;18.784;2022-10-31T16:40:54;26.67;;;17.15;;
55776;SDS011;54079;44.540;18.784;2022-10-31T16:43:20;26.10;;;16.63;;
55776;SDS011;54079;44.540;18.784;2022-10-31T16:45:49;29.00;;;16.85;;
55776;SDS011;54079;44.540;18.784;2022-10-31T16:48:20;27.95;;;17.02;;
55776;SDS011;54079;44.540;18.784;2022-10-31T16:50:48;25.02;;;16.42;;
55776;SDS011;54079;44.540;18.784;2022-10-31T16:53:17;26.00;;;16.35;;
55776;SDS011;54079;44.540;18.784;2022-10-31T16:58:21;25.85;;;15.60;;
55776;SDS011;54079;44.540;18.784;2022-10-31T17:00:52;25.27;;;16.33;;
55776;SDS011;54079;44.540;18.784;2022-10-31T17:03:19;29.95;;;16.95;;
55776;SDS011;54079;44.540;18.784;2022-10-31T17:05:45;28.83;;;15.18;;
55776;SDS011;54079;44.540;18.784;2022-10-31T17:08:11;30.77;;;17.40;;
55776;SDS011;54079;44.540;18.784;2022-10-31T17:10:38;30.75;;;15.20;;
55776;SDS011;54079;44.540;18.784;2022-10-31T17:13:05;26.08;;;15.82;;
55776;SDS011;54079;44.540;18.784;2022-10-31T17:15:36;26.08;;;15.88;;
55776;SDS011;54079;44.540;18.784;2022-10-31T17:18:05;32.53;;;16.95;;
55776;SDS011;54079;44.540;18.784;2022-10-31T17:20:31;28.90;;;16.92;;